Charlottetown, Canada
Current Conditions -  °F | °C
As of 12:00 AM on Monday 22 Dec 2014 (Local Time) from CYYG Reporting Station
Snow Showers Snow Showers  
Wind Chill: 27°   Ceiling: 1900
Heat Index: 27°   Visibility: 15mi
Dew Point: 19°   Wind: 3mph
Humidity: 74%   Direction: 80°E
Pressure: 30.42"   Gusts: NA
Location:  46.24°N, 63.13°W
Report Text: CYYG 220400Z 08003KT 050V130 15SM -SHSN OVC019 M03/M07 A3042 RMK SC8 SLP305
Loading
Personal Weather Stations






























Interactive Weather Map New forecast layout! Learn more

10-Day Weather Forecast

Advertisements
Track Severe Weather on mobile